Time;durP1;ratioP1;P1;durP2;ratioP2;P2;SDS_P1;SDS_P2;PMS_P1;PMS_P2;Temp;Humidity;BMP_temperature;BMP_pressure;BME280_temperature;BME280_humidity;BME280_pressure;Samples;Min_cycle;Max_cycle;Signal;HPM_P1;HPM_P2
2022/05/20 00:01:11;;;;;;;7.50;7.03;;;;;;;16.59;100.00;101669.47;6077597;23;20018;-74
2022/05/20 00:03:39;;;;;;;6.35;5.85;;;;;;;15.58;100.00;101491.13;6136209;23;20692;-74
2022/05/20 00:06:06;;;;;;;7.43;6.82;;;;;;;16.81;100.00;101705.25;6109278;23;20096;-73
2022/05/20 00:08:32;;;;;;;6.47;6.07;;;;;;;15.90;100.00;101581.00;6144317;23;20684;-75
2022/05/20 00:10:59;;;;;;;5.22;5.03;;;;;;;16.69;100.00;101689.13;6108449;23;20022;-75
2022/05/20 00:13:27;;;;;;;6.60;6.20;;;;;;;16.70;98.61;101711.22;6109591;23;20384;-75
2022/05/20 00:15:54;;;;;;;5.80;5.50;;;;;;;16.72;98.89;101707.53;6141035;23;20505;-74
2022/05/20 00:18:20;;;;;;;6.68;6.28;;;;;;;16.34;98.77;101638.34;6115229;23;20032;-74
2022/05/20 00:20:47;;;;;;;14.60;13.80;;;;;;;16.66;98.65;101705.25;6094587;23;20072;-75
2022/05/20 00:23:13;;;;;;;7.20;6.90;;;;;;;16.65;99.31;101713.28;6111401;23;20044;-74
2022/05/20 00:25:45;;;;;;;6.07;5.68;;;;;;;16.67;99.01;101709.59;6109310;23;20021;-73
2022/05/20 00:28:20;;;;;;;6.20;5.90;;;;;;;16.67;99.19;101706.09;6137518;23;20048;-72
2022/05/20 00:31:04;;;;;;;7.43;6.93;;;;;;;16.63;99.17;101718.69;6086308;23;20415;-73
2022/05/20 00:33:32;;;;;;;7.03;6.53;;;;;;;16.59;99.92;101711.88;6132652;23;20010;-75
2022/05/20 00:35:59;;;;;;;6.10;5.80;;;;;;;16.61;100.00;101714.44;6076707;23;20029;-74
2022/05/20 00:38:26;;;;;;;5.75;5.45;;;;;;;16.58;100.00;101715.47;6134619;23;20020;-74
2022/05/20 00:40:55;;;;;;;6.05;5.75;;;;;;;16.32;100.00;101672.03;6103815;23;20100;-70
2022/05/20 00:43:30;;;;;;;6.85;6.47;;;;;;;16.61;100.00;101711.78;6098167;23;20017;-72
2022/05/20 00:45:59;;;;;;;5.95;5.65;;;;;;;16.53;100.00;101705.13;6135133;23;20068;-74
2022/05/20 00:48:27;;;;;;;6.50;6.10;;;;;;;16.49;100.00;101702.78;6112756;23;20053;-74
2022/05/20 00:51:01;;;;;;;6.00;5.70;;;;;;;15.52;100.00;101561.13;6137352;23;20497;-71
2022/05/20 00:53:33;;;;;;;7.90;5.38;;;;;;;16.08;100.00;101666.41;6078876;23;20024;-73
2022/05/20 00:56:02;;;;;;;5.68;5.38;;;;;;;16.18;100.00;101691.41;6144018;23;20021;-73
2022/05/20 00:58:29;;;;;;;5.88;5.50;;;;;;;16.29;100.00;101717.22;6085382;23;20596;-73
2022/05/20 01:00:56;;;;;;;5.82;5.47;;;;;;;16.29;100.00;101703.97;6109889;23;20017;-74
2022/05/20 01:03:26;;;;;;;5.93;5.53;;;;;;;16.24;100.00;101706.91;6131673;23;20033;-74
2022/05/20 01:05:54;;;;;;;5.78;5.47;;;;;;;15.71;100.00;101620.91;6103553;23;20014;-73
2022/05/20 01:08:30;;;;;;;6.25;5.95;;;;;;;16.20;100.00;101708.03;6102712;23;20061;-74
2022/05/20 01:10:57;;;;;;;6.15;5.80;;;;;;;15.61;100.00;101614.44;6111331;23;20019;-76
2022/05/20 01:13:26;;;;;;;6.38;5.97;;;;;;;16.12;100.00;101707.66;6111376;23;20025;-74
2022/05/20 01:15:54;;;;;;;7.30;5.60;;;;;;;16.03;100.00;101701.09;6091680;23;20726;-75
2022/05/20 01:18:22;;;;;;;7.72;7.22;;;;;;;15.02;100.00;101529.72;6141952;23;20025;-76
2022/05/20 01:20:53;;;;;;;5.45;5.15;;;;;;;15.77;100.00;101649.69;6103423;23;20017;-74
2022/05/20 01:23:26;;;;;;;7.85;7.35;;;;;;;16.05;100.00;101696.56;6107597;23;20446;-73
2022/05/20 01:25:53;;;;;;;;;;;;;;;16.08;100.00;101696.38;6138381;23;20020;-74
2022/05/20 01:28:22;;;;;;;8.65;7.93;;;;;;;15.54;100.00;101606.88;6084798;23;19929;-74
2022/05/20 01:30:53;;;;;;;7.38;5.80;;;;;;;15.74;100.00;101632.19;6117832;23;20158;-72
2022/05/20 01:33:27;;;;;;;6.85;6.47;;;;;;;16.09;100.00;101678.69;6117031;23;20014;-72
2022/05/20 01:35:54;;;;;;;6.00;5.68;;;;;;;14.70;100.00;101447.84;6102158;23;20054;-72
2022/05/20 01:38:20;;;;;;;6.63;6.30;;;;;;;16.02;100.00;101661.50;6124640;23;20017;-73
2022/05/20 01:40:56;;;;;;;7.07;6.57;;;;;;;15.65;100.00;101614.16;6105294;23;20017;-72
2022/05/20 01:43:35;;;;;;;6.70;6.13;;;;;;;15.47;100.00;101617.91;6098925;23;20233;-73
2022/05/20 01:46:19;;;;;;;5.72;5.43;;;;;;;15.75;100.00;101670.97;6140106;23;20097;-74
2022/05/20 01:49:15;;;;;;;5.57;5.28;;;;;;;15.72;100.00;101667.63;6112096;23;20525;-73
2022/05/20 01:52:05;;;;;;;5.53;5.22;;;;;;;14.28;100.00;101449.31;6100812;23;20323;-72
2022/05/20 01:54:37;;;;;;;6.03;5.63;;;;;;;15.58;100.00;101676.34;6039539;23;20022;-72
2022/05/20 01:57:14;;;;;;;6.22;5.82;;;;;;;15.54;100.00;101686.25;6109781;23;20414;-73
2022/05/20 01:59:47;;;;;;;6.85;6.35;;;;;;;15.48;100.00;101660.16;6111166;23;20028;-73
2022/05/20 02:02:24;;;;;;;7.32;6.93;;;;;;;15.07;100.00;101606.97;6143071;23;20199;-71
2022/05/20 02:05:00;;;;;;;5.60;5.30;;;;;;;14.95;100.00;101598.81;6084939;23;20010;-71
2022/05/20 02:07:31;;;;;;;5.80;5.50;;;;;;;15.41;100.00;101668.50;6097471;23;20399;-74
2022/05/20 02:10:05;;;;;;;5.60;5.30;;;;;;;15.42;100.00;101691.41;6087447;23;20026;-75
2022/05/20 02:12:37;;;;;;;5.57;5.28;;;;;;;15.40;100.00;101667.66;6109517;23;20513;-72
2022/05/20 02:15:13;;;;;;;6.82;6.43;;;;;;;15.28;100.00;101644.56;6072659;23;20090;-74
2022/05/20 02:17:45;;;;;;;6.15;5.72;;;;;;;14.88;100.00;101570.16;6114889;23;20029;-73
2022/05/20 02:20:14;;;;;;;6.68;6.38;;;;;;;14.33;100.00;101473.66;6080388;23;20021;-71
2022/05/20 02:22:46;;;;;;;5.88;5.57;;;;;;;15.24;100.00;101632.47;6111472;23;20088;-73
2022/05/20 02:25:19;;;;;;;5.93;5.53;;;;;;;15.14;100.00;101630.31;6079314;23;20018;-71
2022/05/20 02:27:52;;;;;;;5.57;5.28;;;;;;;15.24;100.00;101654.47;6071680;23;20014;-72
2022/05/20 02:30:22;;;;;;;7.35;6.85;;;;;;;14.90;100.00;101616.69;6102661;23;20295;-75
2022/05/20 02:33:05;;;;;;;5.60;5.35;;;;;;;15.16;100.00;101662.81;6080434;23;20025;-73
2022/05/20 02:35:32;;;;;;;6.00;5.70;;;;;;;14.94;100.00;101627.94;6075111;23;20027;-72
2022/05/20 02:38:09;;;;;;;6.68;5.82;;;;;;;15.02;100.00;101657.47;6113587;23;20022;-71
2022/05/20 02:40:36;;;;;;;5.90;5.60;;;;;;;14.95;100.00;101649.03;6075626;23;20014;-73
2022/05/20 02:43:03;;;;;;;7.65;7.07;;;;;;;14.73;100.00;101630.84;6084181;23;20029;-74
2022/05/20 02:45:30;;;;;;;6.45;6.03;;;;;;;14.35;100.00;101564.19;6098923;23;20034;-72
2022/05/20 02:47:56;;;;;;;5.60;5.30;;;;;;;14.80;100.00;101639.28;6071982;23;20026;-73
2022/05/20 02:50:23;;;;;;;5.70;5.40;;;;;;;14.67;100.00;101625.91;6113107;23;20021;-73
2022/05/20 02:52:49;;;;;;;6.13;5.82;;;;;;;14.72;100.00;101644.13;6080521;23;20207;-72
2022/05/20 02:55:16;;;;;;;7.13;6.72;;;;;;;14.69;100.00;101661.03;6080158;23;20018;-73
2022/05/20 02:57:44;;;;;;;5.70;5.40;;;;;;;14.23;100.00;101578.06;6104683;23;20035;-72
2022/05/20 03:05:43;;;;;;;6.00;5.65;;;;;;;14.46;100.00;101648.16;6084965;23;20045;-74
2022/05/20 03:08:10;;;;;;;6.47;6.07;;;;;;;14.42;100.00;101657.19;6101702;23;20029;-72
2022/05/20 03:10:36;;;;;;;6.00;5.60;;;;;;;13.65;100.00;101529.22;6083626;23;20455;-72
2022/05/20 03:13:05;;;;;;;5.75;5.45;;;;;;;14.10;100.00;101589.28;6089047;23;20438;-73
2022/05/20 03:15:31;;;;;;;6.57;5.80;;;;;;;14.59;100.00;101643.94;6110935;23;20064;-73
2022/05/20 03:17:58;;;;;;;6.05;5.43;;;;;;;14.69;100.00;101646.94;6079348;23;20118;-71
2022/05/20 03:20:25;;;;;;;6.40;6.10;;;;;;;14.74;100.00;101652.84;6046234;23;20104;-73
2022/05/20 03:22:51;;;;;;;5.65;5.35;;;;;;;14.74;100.00;101621.97;6062813;23;20167;-71
2022/05/20 03:25:20;;;;;;;6.70;6.38;;;;;;;14.89;100.00;101629.97;6076004;23;20017;-72
2022/05/20 03:27:48;;;;;;;6.00;5.53;;;;;;;14.40;100.00;101543.69;6108123;23;20017;-72
2022/05/20 03:30:15;;;;;;;6.80;6.50;;;;;;;14.98;100.00;101632.13;6082031;23;20093;-73
2022/05/20 03:32:41;;;;;;;5.80;5.50;;;;;;;15.04;100.00;101629.16;6078582;23;20084;-72
2022/05/20 03:35:08;;;;;;;7.40;6.90;;;;;;;14.52;100.00;101526.31;6069986;23;20029;-74
2022/05/20 03:37:35;;;;;;;5.57;5.28;;;;;;;14.69;100.00;101538.59;6084195;23;20068;-71
2022/05/20 03:40:03;;;;;;;6.43;6.03;;;;;;;15.08;100.00;101624.53;6094714;23;20026;-73
2022/05/20 03:42:29;;;;;;;5.18;4.97;;;;;;;15.14;100.00;101624.19;6064501;23;20350;-72
2022/05/20 03:44:56;;;;;;;6.00;5.70;;;;;;;14.97;100.00;101582.81;6077184;23;20014;-74
2022/05/20 03:47:22;;;;;;;6.32;6.03;;;;;;;15.29;100.00;101628.59;6068243;23;20016;-72
2022/05/20 03:49:49;;;;;;;6.82;6.43;;;;;;;14.98;100.00;101568.69;6044193;23;20018;-71
2022/05/20 03:52:16;;;;;;;8.02;7.53;;;;;;;15.40;100.00;101624.50;6096196;23;20027;-73
2022/05/20 03:54:43;;;;;;;5.82;5.43;;;;;;;14.99;100.00;101567.72;6085411;23;20443;-71
2022/05/20 03:57:09;;;;;;;6.97;6.65;;;;;;;15.42;100.00;101617.34;6076500;23;20100;-72
2022/05/20 03:59:36;;;;;;;5.95;5.65;;;;;;;15.45;100.00;101619.78;6048977;23;20018;-72
2022/05/20 04:02:06;;;;;;;7.22;6.72;;;;;;;14.38;100.00;101453.13;6079355;23;20357;-73
2022/05/20 04:04:55;;;;;;;6.45;6.13;;;;;;;15.54;100.00;101635.97;6101519;23;20261;-71
2022/05/20 04:07:26;;;;;;;6.50;6.15;;;;;;;15.20;100.00;101565.66;6077566;23;20068;-70
2022/05/20 04:09:53;;;;;;;5.80;5.45;;;;;;;15.63;100.00;101631.94;6113641;23;20077;-71
2022/05/20 04:12:29;;;;;;;7.57;7.00;;;;;;;15.67;100.00;101624.66;6053082;23;20022;-72
2022/05/20 04:14:57;;;;;;;6.65;6.25;;;;;;;15.19;100.00;101537.50;6113749;23;20088;-70
2022/05/20 04:17:24;;;;;;;7.07;6.40;;;;;;;15.71;100.00;101619.09;6082108;23;20081;-71
2022/05/20 04:19:50;;;;;;;7.32;6.65;;;;;;;15.73;100.00;101627.00;6108607;23;20453;-71
2022/05/20 04:22:23;;;;;;;7.45;7.05;;;;;;;15.53;100.00;101622.84;6088780;23;20020;-73
2022/05/20 04:24:49;;;;;;;6.45;6.05;;;;;;;15.49;100.00;101585.13;6079195;23;20042;-72
2022/05/20 04:27:16;;;;;;;7.07;6.68;;;;;;;15.64;100.00;101609.00;6077572;23;20269;-72
2022/05/20 04:29:43;;;;;;;5.90;5.55;;;;;;;15.77;100.00;101617.91;6112434;23;20251;-70
2022/05/20 04:32:10;;;;;;;6.28;5.97;;;;;;;15.75;100.00;101619.81;6082162;23;20372;-72
2022/05/20 04:34:36;;;;;;;6.05;5.70;;;;;;;15.46;100.00;101568.59;6114059;23;20028;-74
2022/05/20 04:37:03;;;;;;;6.22;5.82;;;;;;;15.46;100.00;101571.25;6075475;23;20093;-72
2022/05/20 04:39:29;;;;;;;6.30;5.85;;;;;;;15.84;100.00;101618.44;6101015;23;20009;-71
2022/05/20 04:47:29;;;;;;;6.10;5.80;;;;;;;16.05;100.00;101624.22;6072633;23;20082;-72
2022/05/20 04:49:56;;;;;;;6.50;6.10;;;;;;;16.12;100.00;101626.41;6083520;23;20080;-71
2022/05/20 04:52:23;;;;;;;7.38;6.88;;;;;;;16.17;100.00;101623.47;6104167;23;20028;-74
2022/05/20 04:54:50;;;;;;;6.22;5.93;;;;;;;16.25;100.00;101625.66;6085359;23;20018;-71
2022/05/20 04:57:21;;;;;;;6.88;6.55;;;;;;;16.33;100.00;101618.09;6102853;23;20414;-72
2022/05/20 04:59:48;;;;;;;6.65;5.93;;;;;;;16.43;100.00;101621.00;6094964;23;20560;-71
2022/05/20 05:02:14;;;;;;;7.20;6.80;;;;;;;15.94;100.00;101530.41;6084071;23;20142;-71
2022/05/20 05:04:41;;;;;;;5.93;5.63;;;;;;;16.57;100.00;101614.84;6077565;23;20018;-70
2022/05/20 05:07:09;;;;;;;7.80;7.40;;;;;;;16.59;100.00;101603.19;6108076;23;20352;-71
2022/05/20 05:09:40;;;;;;;6.40;5.95;;;;;;;16.28;100.00;101541.56;6083778;23;20018;-72
2022/05/20 05:12:08;;;;;;;6.93;6.53;;;;;;;16.73;100.00;101610.28;6104823;23;20020;-72
2022/05/20 05:14:46;;;;;;;5.80;5.50;;;;;;;16.53;100.00;101559.38;6083903;23;20202;-72
2022/05/20 05:18:09;;;;;;;7.65;7.25;;;;;;;16.85;100.00;101575.06;6069379;23;20020;-71
2022/05/20 05:20:08;;;;;;;8.38;7.32;;;;;;;16.98;100.00;101587.53;6106339;23;20093;-71
2022/05/20 05:22:34;;;;;;;6.80;6.05;;;;;;;17.11;100.00;101585.78;6080918;23;20014;-71
2022/05/20 05:25:08;;;;;;;8.00;7.60;;;;;;;17.31;99.47;101582.66;6091501;23;20509;-71
2022/05/20 05:27:35;;;;;;;6.00;5.70;;;;;;;17.38;95.73;101583.13;6070593;23;20442;-71
2022/05/20 05:30:02;;;;;;;7.63;6.07;;;;;;;17.58;95.73;101586.22;6062361;23;20772;-72
2022/05/20 05:32:29;;;;;;;6.93;6.35;;;;;;;17.86;94.24;101587.88;6092478;23;20104;-71
2022/05/20 05:34:55;;;;;;;7.38;6.80;;;;;;;17.78;89.89;101542.38;6053097;23;20276;-70
2022/05/20 05:37:22;;;;;;;6.97;6.43;;;;;;;18.65;89.73;101581.41;6045496;23;20318;-71
2022/05/20 05:39:48;;;;;;;8.52;7.07;;;;;;;18.56;83.22;101494.34;6077413;23;20121;-72
2022/05/20 05:42:15;;;;;;;8.70;7.95;;;;;;;19.03;79.08;101529.06;6065879;23;20501;-73
2022/05/20 05:44:41;;;;;;;7.32;6.70;;;;;;;19.46;77.96;101508.00;6105514;23;20294;-72
2022/05/20 05:47:08;;;;;;;7.85;7.40;;;;;;;19.65;76.32;101462.19;6059635;23;20026;-72
2022/05/20 05:49:34;;;;;;;7.18;6.57;;;;;;;19.64;76.53;101550.16;6110510;23;20029;-72
2022/05/20 05:52:00;;;;;;;7.05;6.65;;;;;;;19.93;76.14;101547.94;6074288;23;20022;-73
2022/05/20 05:54:27;;;;;;;8.00;7.20;;;;;;;20.09;74.38;101548.44;6097553;23;20499;-72
2022/05/20 05:56:53;;;;;;;8.82;8.05;;;;;;;19.57;76.15;101515.19;6078826;23;20022;-73
2022/05/20 05:59:20;;;;;;;8.68;8.15;;;;;;;19.72;76.07;101553.09;6073557;23;20021;-72
2022/05/20 06:01:46;;;;;;;8.95;7.45;;;;;;;19.74;76.03;101511.22;6080828;23;20006;-71
2022/05/20 06:04:13;;;;;;;8.07;7.57;;;;;;;20.03;75.00;101548.06;6073218;23;20057;-72
2022/05/20 06:06:39;;;;;;;15.13;7.80;;;;;;;20.83;73.41;101545.19;6111872;23;20024;-71
2022/05/20 06:09:05;;;;;;;8.38;7.82;;;;;;;21.07;72.50;101555.66;6074446;23;20026;-73
2022/05/20 06:11:32;;;;;;;7.38;6.88;;;;;;;21.21;70.16;101549.19;6106406;23;20010;-72
2022/05/20 06:13:58;;;;;;;9.98;7.20;;;;;;;21.11;70.67;101541.09;6055963;23;20018;-73
2022/05/20 06:16:25;;;;;;;7.72;7.13;;;;;;;20.28;72.00;101464.31;6108018;23;20032;-72
2022/05/20 06:18:51;;;;;;;7.95;7.25;;;;;;;20.95;72.24;101531.81;6085584;23;20022;-72
2022/05/20 06:21:17;;;;;;;8.35;7.75;;;;;;;21.42;71.07;101540.31;6110696;23;20032;-71
2022/05/20 06:23:44;;;;;;;9.00;8.23;;;;;;;21.50;70.95;101521.84;6082741;23;20017;-70
2022/05/20 06:26:10;;;;;;;8.10;7.53;;;;;;;20.67;71.58;101451.41;6089891;23;20382;-73
2022/05/20 06:28:44;;;;;;;7.25;6.75;;;;;;;20.77;73.24;101487.00;6093685;23;20099;-71
2022/05/20 06:31:11;;;;;;;8.05;7.35;;;;;;;20.60;73.71;101483.06;6084641;23;20030;-73
2022/05/20 06:33:38;;;;;;;7.63;7.03;;;;;;;20.76;74.65;101525.31;6088206;23;20018;-72
2022/05/20 06:41:35;;;;;;;7.22;6.72;;;;;;;20.87;73.26;101476.44;6108332;23;20017;-73
2022/05/20 06:44:02;;;;;;;8.50;7.80;;;;;;;20.64;74.46;101489.00;6080285;23;20017;-72
2022/05/20 06:46:29;;;;;;;6.90;6.50;;;;;;;20.57;74.65;101483.28;6108482;23;20042;-72
2022/05/20 06:49:03;;;;;;;8.45;7.75;;;;;;;20.94;75.31;101533.63;6083812;23;20514;-72
2022/05/20 06:51:35;;;;;;;;;;;;;;;21.27;75.19;101535.31;6082935;23;20026;-73
2022/05/20 06:54:04;;;;;;;7.47;6.95;;;;;;;21.67;73.49;101536.44;6092359;23;19905;-73
2022/05/20 06:56:31;;;;;;;8.38;7.68;;;;;;;21.92;72.35;101535.16;6081447;23;20036;-72
2022/05/20 06:58:59;;;;;;;7.53;6.93;;;;;;;22.14;70.29;101533.28;6075693;23;20020;-73
2022/05/20 07:01:26;;;;;;;8.43;7.00;;;;;;;22.29;69.92;101527.47;6108267;23;20017;-72
2022/05/20 07:03:53;;;;;;;7.47;6.88;;;;;;;22.37;68.27;101524.09;6078999;23;20077;-73
2022/05/20 07:06:20;;;;;;;10.25;9.27;;;;;;;;;;6125834;23;20100;-71
2022/05/20 07:08:50;;;;;;;7.72;7.00;;;;;;;21.71;71.28;101525.34;6130957;23;20051;-71
2022/05/20 07:11:19;;;;;;;8.48;7.82;;;;;;;21.01;74.35;101448.59;6101954;23;20037;-73
2022/05/20 07:13:47;;;;;;;8.40;7.65;;;;;;;21.76;73.45;101503.56;6105277;23;20193;-72
2022/05/20 07:16:16;;;;;;;9.20;8.50;;;;;;;21.78;72.65;101455.34;6127038;23;20048;-71
2022/05/20 07:18:43;;;;;;;7.85;7.25;;;;;;;21.96;72.89;101482.28;6093129;23;20026;-72
2022/05/20 07:21:09;;;;;;;9.27;8.57;;;;;;;21.63;71.98;101429.00;6113155;23;20097;-72
2022/05/20 07:23:36;;;;;;;8.30;7.03;;;;;;;20.69;73.35;101338.28;6124881;23;20012;-72
2022/05/20 07:26:03;;;;;;;8.65;7.68;;;;;;;21.71;74.29;101477.28;6107314;23;20029;-73
2022/05/20 07:28:31;;;;;;;7.82;7.13;;;;;;;21.93;74.35;101467.38;6127211;23;20231;-70
2022/05/20 07:30:58;;;;;;;7.65;7.13;;;;;;;22.26;72.58;101466.22;6066291;23;20577;-73
2022/05/20 07:33:24;;;;;;;14.88;8.23;;;;;;;22.09;71.00;101442.78;6118580;23;20489;-73
2022/05/20 07:35:52;;;;;;;7.35;6.75;;;;;;;22.09;72.54;101481.06;6101915;23;20048;-73
2022/05/20 07:38:18;;;;;;;10.40;9.52;;;;;;;21.73;73.63;101407.69;6097812;23;20149;-72
2022/05/20 07:40:44;;;;;;;8.52;7.70;;;;;;;22.05;73.23;101425.31;6116727;23;20020;-71
2022/05/20 07:43:12;;;;;;;10.18;9.43;;;;;;;21.91;72.90;101464.84;6101562;23;20608;-73
2022/05/20 07:45:39;;;;;;;7.88;7.28;;;;;;;22.05;73.91;101465.41;6100220;23;20030;-73
2022/05/20 07:48:06;;;;;;;9.20;8.30;;;;;;;21.97;73.01;101410.00;6133613;23;20507;-72
2022/05/20 07:50:38;;;;;;;8.82;8.18;;;;;;;22.16;72.26;101417.19;6103201;23;20029;-73
2022/05/20 07:53:20;;;;;;;;;;;;;;;22.57;72.76;101460.78;6092135;23;20037;-71
2022/05/20 07:55:57;;;;;;;8.18;7.43;;;;;;;22.82;72.06;101461.22;6136589;23;20323;-71
2022/05/20 07:58:30;;;;;;;8.93;8.25;;;;;;;23.13;69.61;101451.19;6101231;23;20486;-73
2022/05/20 08:01:17;;;;;;;10.07;9.30;;;;;;;22.95;69.79;101408.19;6070137;23;20116;-71
2022/05/20 08:06:31;;;;;;;7.70;7.20;;;;;;;23.17;68.71;101467.81;6075478;23;20018;-73
2022/05/20 08:08:57;;;;;;;8.35;7.68;;;;;;;21.60;71.61;101334.94;6078969;23;20040;-72
2022/05/20 08:11:23;;;;;;;8.20;7.60;;;;;;;22.63;72.70;101464.72;6078445;23;20534;-73
2022/05/20 08:13:50;;;;;;;7.72;7.13;;;;;;;22.24;71.28;101366.56;6071893;23;20018;-73
2022/05/20 08:16:18;;;;;;;9.95;7.97;;;;;;;23.26;69.70;101449.06;6104798;23;20019;-74
2022/05/20 08:18:45;;;;;;;7.70;7.05;;;;;;;23.69;69.11;101446.78;6078288;23;20085;-71
2022/05/20 08:21:12;;;;;;;9.43;8.80;;;;;;;23.67;68.90;101443.41;6103443;23;20077;-70
2022/05/20 08:23:38;;;;;;;8.77;8.02;;;;;;;23.48;68.19;101436.31;6075753;23;20026;-71
2022/05/20 08:26:05;;;;;;;8.35;7.72;;;;;;;23.18;69.08;101411.44;6098044;23;20648;-70
2022/05/20 08:28:31;;;;;;;7.80;7.30;;;;;;;23.15;69.95;101430.47;6076901;23;20400;-70
2022/05/20 08:30:58;;;;;;;8.77;7.97;;;;;;;22.96;69.65;101436.69;6082716;23;20291;-72
2022/05/20 08:33:24;;;;;;;8.07;7.45;;;;;;;23.00;72.10;101413.97;6073289;23;20027;-72
2022/05/20 08:35:51;;;;;;;7.95;7.25;;;;;;;23.03;68.82;101392.31;6061030;23;20038;-73
2022/05/20 08:38:17;;;;;;;9.02;8.43;;;;;;;22.91;71.68;101428.22;6050558;23;20029;-71
2022/05/20 08:40:46;;;;;;;8.00;7.32;;;;;;;22.76;73.24;101430.50;6083633;23;20773;-74
2022/05/20 08:43:13;;;;;;;8.80;8.20;;;;;;;22.92;72.69;101429.91;6075017;23;20029;-74
2022/05/20 08:45:40;;;;;;;8.38;7.57;;;;;;;22.79;72.37;101422.19;6073356;23;20033;-73
2022/05/20 08:48:09;;;;;;;9.38;8.73;;;;;;;22.85;72.68;101402.03;6110743;23;20022;-76
2022/05/20 08:50:43;;;;;;;8.50;7.28;;;;;;;22.81;73.29;101360.47;6080638;23;20014;-71
2022/05/20 08:53:32;;;;;;;8.70;8.20;;;;;;;23.06;71.74;101370.59;6094377;23;20018;-71
2022/05/20 08:56:01;;;;;;;9.55;7.95;;;;;;;21.34;71.55;101048.88;6075900;23;20816;-71
2022/05/20 08:58:27;;;;;;;9.05;7.53;;;;;;;23.69;69.15;101390.50;6068674;23;20028;-71
2022/05/20 09:00:55;;;;;;;9.25;8.02;;;;;;;22.59;71.63;101284.06;6044955;23;20521;-74
2022/05/20 09:03:22;;;;;;;8.00;7.38;;;;;;;23.30;70.61;101313.84;6080189;23;20096;-73
2022/05/20 09:05:49;;;;;;;8.70;8.00;;;;;;;23.74;69.86;101384.72;6095962;23;20017;-72
2022/05/20 09:08:22;;;;;;;9.73;8.95;;;;;;;23.56;69.02;101379.31;6095268;23;20052;-71
2022/05/20 09:10:53;;;;;;;9.25;8.45;;;;;;;23.23;68.98;101322.63;6126909;23;20034;-71
2022/05/20 09:16:30;;;;;;;8.63;7.93;;;;;;;23.88;68.73;101370.84;6095867;23;20711;-70
2022/05/20 09:19:23;;;;;;;9.20;8.30;;;;;;;23.77;70.06;101368.31;6141143;23;20044;-70
2022/05/20 09:22:07;;;;;;;8.88;8.00;;;;;;;23.75;69.40;101371.16;6107022;23;20013;-70
2022/05/20 09:24:40;;;;;;;8.23;7.53;;;;;;;23.75;68.73;101360.44;6131344;23;20411;-71
2022/05/20 09:27:13;;;;;;;9.70;9.00;;;;;;;23.50;69.29;101352.09;6105606;23;20372;-72
2022/05/20 09:29:45;;;;;;;7.93;7.38;;;;;;;23.49;71.09;101346.88;6135729;23;20415;-71
2022/05/20 09:32:29;;;;;;;10.10;9.00;;;;;;;23.09;71.34;101281.97;6095235;23;20638;-71
2022/05/20 09:35:00;;;;;;;9.73;8.82;;;;;;;23.47;69.21;101287.25;6104502;23;20481;-70
2022/05/20 09:37:32;;;;;;;8.30;7.65;;;;;;;23.96;69.42;101333.38;6107150;23;20080;-70
2022/05/20 09:40:20;;;;;;;8.10;7.45;;;;;;;24.35;69.04;101327.69;6139480;23;20015;-74
2022/05/20 09:43:08;;;;;;;9.32;8.48;;;;;;;24.49;68.96;101315.56;6108869;23;20025;-72
2022/05/20 09:45:46;;;;;;;7.78;7.18;;;;;;;24.88;66.49;101315.22;6109377;23;20022;-71
2022/05/20 09:48:32;;;;;;;9.07;8.48;;;;;;;24.61;64.83;101260.66;6135218;23;20033;-70
2022/05/20 09:51:24;;;;;;;7.88;7.07;;;;;;;24.34;65.37;101225.94;6112202;23;20033;-71
2022/05/20 09:54:27;;;;;;;7.75;7.22;;;;;;;24.82;66.64;101305.09;6138211;23;20027;-71
2022/05/20 09:57:02;;;;;;;7.63;7.13;;;;;;;25.45;62.89;101301.22;6103506;23;20634;-70
2022/05/20 09:59:35;;;;;;;8.65;7.95;;;;;;;25.69;62.61;101300.44;6115772;23;20627;-71
2022/05/20 10:02:19;;;;;;;7.90;7.40;;;;;;;25.69;61.10;101295.06;6107509;23;20052;-71
2022/05/20 10:04:56;;;;;;;7.88;7.35;;;;;;;25.74;62.39;101295.44;6094780;23;20084;-69
2022/05/20 10:07:42;;;;;;;8.10;7.45;;;;;;;25.64;63.12;101284.81;6137397;23;20001;-70
2022/05/20 10:11:00;;;;;;;9.73;9.00;;;;;;;25.55;62.91;101261.59;6135591;23;20465;-73
2022/05/20 10:13:35;;;;;;;7.57;7.03;;;;;;;25.45;62.61;101250.16;6071632;23;20107;-72
2022/05/20 10:16:03;;;;;;;7.20;6.70;;;;;;;25.34;61.96;101242.41;6086908;23;20010;-71
2022/05/20 10:18:54;;;;;;;7.80;7.30;;;;;;;25.31;62.93;101246.25;6141562;23;20016;-70
2022/05/20 10:21:45;;;;;;;8.50;7.88;;;;;;;25.30;64.70;101212.34;6095572;23;20474;-70
2022/05/20 10:24:32;;;;;;;8.05;7.55;;;;;;;25.65;62.74;101200.47;6135614;23;20017;-70
2022/05/20 10:27:16;;;;;;;8.32;7.72;;;;;;;24.77;66.41;101216.97;6073296;23;20014;-71
2022/05/20 10:32:53;;;;;;;6.70;6.30;;;;;;;24.92;66.88;101179.63;6140685;23;20021;-70
2022/05/20 10:35:24;;;;;;;9.10;8.40;;;;;;;25.17;63.97;101180.53;6106149;23;20022;-71
2022/05/20 10:38:09;;;;;;;8.32;7.72;;;;;;;25.03;65.91;101176.63;6083816;23;20316;-70
2022/05/20 10:41:13;;;;;;;7.72;6.93;;;;;;;25.26;64.48;101157.28;6141851;23;20028;-70
2022/05/20 10:50:25;;;;;;;8.20;7.70;;;;;;;25.41;63.67;101120.66;6090336;23;20016;-73
2022/05/20 10:53:21;;;;;;;7.85;7.22;;;;;;;25.59;63.75;101139.31;6106978;23;20021;-70
2022/05/20 10:56:25;;;;;;;8.23;7.40;;;;;;;25.62;64.14;101093.31;6106402;23;20630;-71
2022/05/20 10:59:10;;;;;;;7.55;6.93;;;;;;;26.15;61.62;101135.94;6118314;23;20043;-73
2022/05/20 11:01:49;;;;;;;8.07;7.57;;;;;;;26.18;60.03;101131.06;6092699;23;20022;-71
2022/05/20 11:04:40;;;;;;;8.45;7.95;;;;;;;26.16;61.48;101119.63;6128944;23;20109;-75
2022/05/20 11:07:41;;;;;;;9.18;8.48;;;;;;;25.84;61.48;101110.59;6101749;23;20022;-71
2022/05/20 11:10:30;;;;;;;8.00;7.47;;;;;;;25.69;62.29;101106.91;6090107;23;20517;-74
2022/05/20 11:13:15;;;;;;;7.07;6.68;;;;;;;24.97;63.51;101026.91;6127579;23;20021;-71
2022/05/20 11:16:03;;;;;;;7.18;6.57;;;;;;;25.77;63.23;101080.00;6103790;23;20029;-72
2022/05/20 11:18:48;;;;;;;7.05;6.65;;;;;;;26.32;62.42;101085.59;6109144;23;20843;-74
2022/05/20 11:21:26;;;;;;;8.25;7.65;;;;;;;26.54;61.85;101066.00;6103211;23;20084;-71
2022/05/20 11:23:59;;;;;;;7.38;6.88;;;;;;;26.87;60.58;101055.06;6101458;23;20033;-72
2022/05/20 11:26:32;;;;;;;;;;;;;;;26.90;57.91;101053.88;6124569;23;20219;-75
2022/05/20 11:29:10;;;;;;;6.68;6.35;;;;;;;26.60;58.77;100989.97;6100297;23;19909;-72
2022/05/20 11:31:53;;;;;;;6.82;6.43;;;;;;;27.17;57.53;101039.03;6125903;23;20017;-73
2022/05/20 11:34:39;;;;;;;8.20;7.70;;;;;;;27.38;57.03;101025.75;6089539;23;20021;-73
2022/05/20 11:37:34;;;;;;;7.20;6.72;;;;;;;27.67;55.85;100988.22;6137545;23;20027;-72
2022/05/20 11:40:33;;;;;;;6.65;6.28;;;;;;;27.54;56.70;100969.97;6094743;23;20019;-72
2022/05/20 11:43:29;;;;;;;7.10;6.70;;;;;;;27.55;56.24;100974.38;6133513;23;20100;-74
2022/05/20 11:46:26;;;;;;;6.90;6.50;;;;;;;27.64;56.90;100973.25;6111626;23;20949;-71
2022/05/20 11:49:30;;;;;;;6.55;6.25;;;;;;;27.64;57.06;100954.34;6113446;23;20025;-72
2022/05/20 11:52:18;;;;;;;6.68;6.30;;;;;;;27.65;56.53;100927.22;6104347;23;20028;-71
2022/05/20 11:54:51;;;;;;;6.50;6.20;;;;;;;27.73;54.54;100928.16;6111077;23;20017;-72
2022/05/20 11:57:27;;;;;;;7.55;7.15;;;;;;;27.24;57.35;100913.34;6086708;23;20081;-73
2022/05/20 12:00:03;;;;;;;6.75;6.35;;;;;;;27.27;58.28;100902.22;6105569;23;20013;-71
2022/05/20 12:02:38;;;;;;;7.03;6.53;;;;;;;26.31;58.90;100804.94;6079794;23;20051;-73
2022/05/20 12:05:09;;;;;;;6.80;6.40;;;;;;;26.25;60.63;100840.63;6138496;23;20029;-71
2022/05/20 12:07:37;;;;;;;7.25;6.82;;;;;;;26.36;60.02;100861.75;6086350;23;20088;-72
2022/05/20 12:10:35;;;;;;;8.40;7.60;;;;;;;26.12;61.56;100861.91;6115870;23;20109;-73
2022/05/20 12:13:19;;;;;;;7.35;6.95;;;;;;;25.73;63.02;100889.66;6115831;23;20025;-72
2022/05/20 12:15:49;;;;;;;6.85;6.45;;;;;;;25.33;63.13;100867.28;6102031;23;20045;-72
2022/05/20 12:24:39;;;;;;;6.78;6.40;;;;;;;25.31;70.21;100945.38;6052918;23;20049;-72
2022/05/20 12:27:36;;;;;;;7.10;6.70;;;;;;;25.02;72.81;100908.28;6129970;23;20025;-72